Kihei, HI

5:55 PM HST on September 23, 2014 (GMT -1000)
Kahului | Change Station
CLOSE
Current Station
Airport
Location: Kahului,
Elevation: 49 ft
Nearby Weather Stations

Elev 49 ft 20.90 °N, 156.43 °W | Updated 1 hour ago

Scattered Clouds
Scattered Clouds
85 °F
Feels Like 89 °F
N
24
Wind Variable Wind from ENE
Gusts 32 mph

Today
High -- | Low -- °F
--% Chance of Precip.
Yesterday
High -- | Low -- °F
Precip. -- in
6:14 AM 6:20 PM
Waning Crescent, 0% visible
Pressure 29.99 in
Visibility 10.0 miles
Clouds Few 3500 ft
Scattered Clouds 7000 ft
Heat Index 89 °F
Dew Point 69 °F
Humidity 59%
Rainfall 0.00 in
Snow Depth Not available.
UV 1 out of 12
Pollen Not available.
Air Quality Not available.
Flu Activity Not available.
METAR PHOG 240254Z COR 06021G28KT 10SM FEW035 SCT070 29/21 A2998 RMK AO2 PK WND 07028/0254 SLP155 T02940206 55003

More Conditions Fewer Conditions

Pressure 29.99 in
Visibility 10.0 miles
Clouds Few 3500 ft
Scattered Clouds 7000 ft
Heat Index 89 °F
Dew Point 69 °F
Humidity 59%
Rainfall 0.00 in
Snow Depth Not available.
UV 1 out of 12
Pollen Not available.
Air Quality Not available.
Flu Activity Not available.
METAR PHOG 240254Z COR 06021G28KT 10SM FEW035 SCT070 29/21 A2998 RMK AO2 PK WND 07028/0254 SLP155 T02940206 55003

More Conditions Fewer Conditions

10-Day Weather Forecast

Almanac

Astronomy

Sep. 23, 2014 Rise Set
Actual Time 6:14 AM HST 6:20 PM HST
Civil Twilight 5:52 AM HST 6:42 PM HST
Nautical Twilight 5:27 AM HST 7:08 PM HST
Astronomical Twilight 5:01 AM HST 7:34 PM HST
Moon 5:49 AM HST (9/23) 6:08 PM HST (9/23)
Length of Visible Light 12h 50m
Length of Day
12h 05m
Tomorrow will be 1m 10s shorter.
Waning Crescent, 0% of the Moon is Illuminated
Today
Waning Crescent
Sep 24
New
Oct 1
First Quarter
Oct 8
Full
Oct 15
Last Quarter

Today's Extremes

State Highs State Lows

Community

WunderPhotos

Upload Photos

1,755,878 photos uploaded!

WunderBlogs® & News

Nearby

Snow Depth

Station Depth Elevation
No new snow has been reported.

Earthquake Activity

City Distance Mag. Time & Date
No recent earthquake activity has been reported nearby.
Minimum magnitude displayed is 2.5.

Coastal Water Temperatures

Place Temperature
No Stations Reporting

Nearby Weather Stations